createdAt,value
2023-01-29T00:02:24.322Z,86.64
2023-01-29T00:04:51.201Z,86.98
2023-01-29T00:07:17.937Z,86.68
2023-01-29T00:09:44.777Z,87.04
2023-01-29T00:12:11.956Z,86.95
2023-01-29T00:14:38.792Z,87.02
2023-01-29T00:17:05.747Z,87.13
2023-01-29T00:19:32.674Z,87.13
2023-01-29T00:21:59.389Z,87.25
2023-01-29T00:24:26.324Z,87.07
2023-01-29T00:26:53.199Z,87.00
2023-01-29T00:29:20.234Z,87.03
2023-01-29T00:31:47.566Z,87.29
2023-01-29T00:34:14.552Z,87.48
2023-01-29T00:36:41.593Z,87.52
2023-01-29T00:39:11.143Z,87.44
2023-01-29T00:41:56.948Z,87.35
2023-01-29T00:44:42.459Z,87.37
2023-01-29T00:47:29.746Z,87.08
2023-01-29T00:49:56.997Z,86.85
2023-01-29T00:52:24.284Z,86.48
2023-01-29T00:54:55.001Z,86.35
2023-01-29T00:57:31.302Z,86.23
2023-01-29T00:59:59.299Z,85.70
2023-01-29T01:02:44.993Z,85.77
2023-01-29T01:05:14.631Z,85.44
2023-01-29T01:07:41.828Z,85.63
2023-01-29T01:10:22.731Z,85.48
2023-01-29T01:12:51.575Z,85.51
2023-01-29T01:15:19.085Z,85.54
2023-01-29T01:17:46.295Z,85.38
2023-01-29T01:20:14.039Z,85.36
2023-01-29T01:22:41.885Z,85.39
2023-01-29T01:25:09.645Z,84.84
2023-01-29T01:27:41.432Z,84.67
2023-01-29T01:30:13.033Z,84.08
2023-01-29T01:32:40.564Z,84.25
2023-01-29T01:35:08.128Z,83.71
2023-01-29T01:37:38.165Z,83.93
2023-01-29T01:40:12.929Z,83.63
2023-01-29T01:42:40.685Z,83.72
2023-01-29T01:45:10.565Z,83.49
2023-01-29T01:47:40.767Z,83.29
2023-01-29T01:50:14.241Z,83.52
2023-01-29T01:52:44.491Z,83.21
2023-01-29T01:55:13.765Z,83.15
2023-01-29T01:57:42.568Z,83.08
2023-01-29T02:00:10.767Z,82.95
2023-01-29T02:02:58.173Z,83.30
2023-01-29T02:05:43.830Z,82.58
2023-01-29T02:08:29.645Z,82.14
2023-01-29T02:10:56.887Z,80.28
2023-01-29T02:13:24.124Z,79.60
2023-01-29T02:15:50.969Z,79.56
2023-01-29T02:18:19.566Z,80.12
2023-01-29T02:20:57.766Z,79.68
2023-01-29T02:23:57.032Z,78.77
2023-01-29T02:26:28.281Z,77.04
2023-01-29T02:29:20.326Z,77.94
2023-01-29T02:31:51.396Z,77.98
2023-01-29T02:34:18.325Z,78.13
2023-01-29T02:36:54.758Z,77.84
2023-01-29T02:39:30.325Z,77.85
2023-01-29T02:42:00.546Z,78.31
2023-01-29T02:44:33.443Z,78.24
2023-01-29T02:47:11.445Z,78.07
2023-01-29T02:49:43.403Z,78.10
2023-01-29T02:52:15.713Z,77.68
2023-01-29T02:54:45.763Z,78.35
2023-01-29T02:57:23.565Z,77.52
2023-01-29T02:59:59.723Z,78.08
2023-01-29T03:02:31.397Z,77.80
2023-01-29T03:05:01.608Z,77.57
2023-01-29T03:07:46.723Z,76.93
2023-01-29T03:10:20.557Z,77.84
2023-01-29T03:12:50.208Z,77.57
2023-01-29T03:15:19.457Z,77.63
2023-01-29T03:17:46.198Z,77.70
2023-01-29T03:20:17.807Z,77.93
2023-01-29T03:22:47.291Z,76.95
2023-01-29T03:25:34.692Z,77.01
2023-01-29T03:28:22.299Z,77.29
2023-01-29T03:31:11.599Z,76.33
2023-01-29T03:33:44.659Z,76.99
2023-01-29T03:36:21.644Z,76.39
2023-01-29T03:38:48.484Z,76.01
2023-01-29T03:41:23.333Z,75.92
2023-01-29T03:43:55.364Z,76.31
2023-01-29T03:46:29.690Z,76.24
2023-01-29T03:49:01.915Z,76.01
2023-01-29T03:51:32.590Z,75.65
2023-01-29T03:54:06.150Z,76.49
2023-01-29T03:56:32.914Z,76.61
2023-01-29T03:59:02.755Z,76.72
2023-01-29T04:01:32.351Z,76.79
2023-01-29T04:03:59.218Z,76.77
2023-01-29T04:06:29.501Z,76.90
2023-01-29T04:08:59.230Z,76.71
2023-01-29T04:11:27.771Z,76.64
2023-01-29T04:13:54.554Z,77.03
2023-01-29T04:16:25.320Z,76.73
2023-01-29T04:18:52.867Z,76.91
2023-01-29T04:21:19.676Z,76.77
2023-01-29T04:23:46.580Z,77.21
2023-01-29T04:26:34.349Z,77.21
2023-01-29T04:29:16.957Z,77.20
2023-01-29T04:32:01.509Z,77.23
2023-01-29T04:34:29.136Z,77.47
2023-01-29T04:37:11.242Z,77.78
2023-01-29T04:39:49.075Z,77.43
2023-01-29T04:42:39.549Z,77.60
2023-01-29T04:45:16.246Z,77.04
2023-01-29T04:47:50.348Z,77.13
2023-01-29T04:50:17.398Z,77.34
2023-01-29T04:52:50.274Z,77.28
2023-01-29T04:55:36.349Z,76.98
2023-01-29T04:58:06.090Z,77.11
2023-01-29T05:00:53.670Z,77.03
2023-01-29T05:03:22.876Z,77.08
2023-01-29T05:05:51.283Z,77.37
2023-01-29T05:08:19.831Z,77.28
2023-01-29T05:10:48.836Z,77.12
2023-01-29T05:13:16.257Z,77.23
2023-01-29T05:15:47.676Z,77.17
2023-01-29T05:18:14.795Z,77.28
2023-01-29T05:20:43.670Z,77.37
2023-01-29T05:23:16.110Z,77.66
2023-01-29T05:25:43.160Z,77.64
2023-01-29T05:28:19.539Z,77.68
2023-01-29T05:30:47.907Z,77.96
2023-01-29T05:33:16.738Z,78.03
2023-01-29T05:35:44.099Z,77.84
2023-01-29T05:38:11.536Z,78.14
2023-01-29T05:40:38.733Z,77.74
2023-01-29T05:43:07.017Z,77.72
2023-01-29T05:45:34.061Z,77.77
2023-01-29T05:48:01.004Z,77.21
2023-01-29T05:50:28.252Z,76.95
2023-01-29T05:52:59.087Z,76.97
2023-01-29T05:55:25.933Z,76.85
2023-01-29T05:57:52.767Z,76.40
2023-01-29T06:00:19.810Z,76.60
2023-01-29T06:02:46.878Z,76.90
2023-01-29T06:05:13.738Z,76.83
2023-01-29T06:07:45.594Z,76.72
2023-01-29T06:10:13.435Z,77.13
2023-01-29T06:12:40.900Z,77.06
2023-01-29T06:15:08.036Z,76.55
2023-01-29T06:17:34.785Z,76.25
2023-01-29T06:20:01.621Z,75.98
2023-01-29T06:22:28.338Z,76.42
2023-01-29T06:24:55.621Z,76.08
2023-01-29T06:27:22.661Z,75.39
2023-01-29T06:29:49.575Z,75.12
2023-01-29T06:32:16.685Z,75.31
2023-01-29T06:34:43.781Z,75.40
2023-01-29T06:37:10.507Z,75.61
2023-01-29T06:39:37.356Z,75.73
2023-01-29T06:42:04.290Z,75.84
2023-01-29T06:44:31.129Z,75.71
2023-01-29T06:46:57.884Z,75.89
2023-01-29T06:49:24.814Z,75.79
2023-01-29T06:51:51.550Z,75.97
2023-01-29T06:54:18.287Z,76.18
2023-01-29T06:56:45.021Z,76.04
2023-01-29T06:59:12.965Z,75.83
2023-01-29T07:01:41.702Z,75.61
2023-01-29T07:04:08.524Z,75.82
2023-01-29T07:06:36.182Z,75.81
2023-01-29T07:09:05.995Z,75.59
2023-01-29T07:11:34.375Z,75.91
2023-01-29T07:14:01.102Z,76.17
2023-01-29T07:16:27.952Z,76.18
2023-01-29T07:18:54.912Z,76.00
2023-01-29T07:21:21.738Z,75.93
2023-01-29T07:23:48.782Z,76.23
2023-01-29T07:26:16.230Z,76.36
2023-01-29T07:28:43.167Z,76.76
2023-01-29T07:31:12.424Z,76.90
2023-01-29T07:33:39.312Z,76.91
2023-01-29T07:36:09.933Z,77.04
2023-01-29T07:38:36.686Z,77.09
2023-01-29T07:41:03.833Z,77.13
2023-01-29T07:43:30.875Z,77.50
2023-01-29T07:46:01.759Z,77.45
2023-01-29T07:48:28.646Z,77.27
2023-01-29T07:50:56.507Z,77.44
2023-01-29T07:53:23.269Z,77.34
2023-01-29T07:55:50.097Z,77.34
2023-01-29T07:58:17.097Z,77.93
2023-01-29T08:00:44.621Z,77.96
2023-01-29T08:03:12.864Z,78.08
2023-01-29T08:05:40.219Z,77.93
2023-01-29T08:08:07.996Z,77.86
2023-01-29T08:10:35.633Z,77.84
2023-01-29T08:13:03.909Z,78.18
2023-01-29T08:15:31.538Z,78.15
2023-01-29T08:17:58.659Z,77.97
2023-01-29T08:20:27.347Z,78.42
2023-01-29T08:23:01.738Z,78.47
2023-01-29T08:25:29.494Z,78.37
2023-01-29T08:27:58.097Z,78.23
2023-01-29T08:30:29.028Z,78.62
2023-01-29T08:32:56.153Z,78.50
2023-01-29T08:35:23.669Z,78.68
2023-01-29T08:38:00.727Z,78.85
2023-01-29T08:40:29.026Z,79.00
2023-01-29T08:43:02.022Z,79.12
2023-01-29T08:45:30.822Z,79.23
2023-01-29T08:47:57.794Z,79.07
2023-01-29T08:50:25.319Z,79.30
2023-01-29T08:52:52.135Z,79.25
2023-01-29T08:55:19.214Z,79.48
2023-01-29T08:57:46.350Z,79.33
2023-01-29T09:00:13.640Z,79.33
2023-01-29T09:02:40.661Z,79.31
2023-01-29T09:05:08.219Z,79.22
2023-01-29T09:07:35.021Z,79.19
2023-01-29T09:10:02.410Z,79.18
2023-01-29T09:12:29.701Z,79.23
2023-01-29T09:14:56.536Z,78.90
2023-01-29T09:17:23.836Z,78.75
2023-01-29T09:19:52.522Z,78.63
2023-01-29T09:22:19.983Z,77.57
2023-01-29T09:24:47.226Z,77.06
2023-01-29T09:27:14.282Z,76.98
2023-01-29T09:29:41.217Z,77.55
2023-01-29T09:32:08.266Z,77.78
2023-01-29T09:34:35.662Z,76.87
2023-01-29T09:37:03.056Z,76.85
2023-01-29T09:39:30.138Z,77.01
2023-01-29T09:42:03.284Z,76.13
2023-01-29T09:44:36.184Z,76.19
2023-01-29T09:47:06.587Z,75.31
2023-01-29T09:49:38.292Z,75.48
2023-01-29T09:52:17.842Z,75.84
2023-01-29T09:55:00.000Z,75.85
2023-01-29T09:57:34.108Z,76.11
2023-01-29T10:00:01.052Z,75.89
2023-01-29T10:02:57.516Z,75.59
2023-01-29T10:05:29.961Z,75.92
2023-01-29T10:07:58.169Z,75.65
2023-01-29T10:10:40.435Z,75.56
2023-01-29T10:13:26.531Z,75.36
2023-01-29T10:16:05.151Z,75.13
2023-01-29T10:18:58.458Z,75.11
2023-01-29T10:21:37.978Z,75.19
2023-01-29T10:24:16.044Z,74.83
2023-01-29T10:26:43.107Z,74.40
2023-01-29T10:29:15.876Z,73.71
2023-01-29T10:31:43.747Z,73.48
2023-01-29T10:34:16.826Z,74.34
2023-01-29T10:36:45.338Z,72.55
2023-01-29T10:39:16.127Z,72.18
2023-01-29T10:41:58.937Z,72.16
2023-01-29T10:44:49.099Z,71.67
2023-01-29T10:47:25.249Z,71.96
2023-01-29T10:49:55.012Z,69.80
2023-01-29T10:52:40.990Z,68.87
2023-01-29T10:55:26.700Z,70.03
2023-01-29T10:57:54.018Z,69.62
2023-01-29T11:00:30.883Z,68.74
2023-01-29T11:02:58.708Z,68.23
2023-01-29T11:05:44.189Z,67.38
2023-01-29T11:08:31.252Z,67.75
2023-01-29T11:10:58.506Z,69.44
2023-01-29T11:13:28.137Z,69.35
2023-01-29T11:15:55.449Z,69.79
2023-01-29T11:18:22.200Z,69.80
2023-01-29T11:20:59.791Z,68.90
2023-01-29T11:23:29.267Z,69.20
2023-01-29T11:25:57.971Z,69.95
2023-01-29T11:28:40.085Z,69.47
2023-01-29T11:31:17.981Z,69.80
2023-01-29T11:33:45.838Z,69.46
2023-01-29T11:36:21.266Z,69.88
2023-01-29T11:38:48.122Z,69.97
2023-01-29T11:41:19.013Z,69.13
2023-01-29T11:43:45.816Z,68.66
2023-01-29T11:46:13.800Z,69.51
2023-01-29T11:48:41.577Z,69.67
2023-01-29T11:51:09.080Z,70.06
2023-01-29T11:53:38.891Z,70.00
2023-01-29T11:56:13.929Z,69.76
2023-01-29T11:58:42.140Z,69.70
2023-01-29T12:01:10.381Z,69.41
2023-01-29T12:03:40.919Z,69.06
2023-01-29T12:06:13.327Z,68.65
2023-01-29T12:08:40.514Z,69.26
2023-01-29T12:11:09.091Z,69.76
2023-01-29T12:13:36.728Z,69.00
2023-01-29T12:16:22.795Z,68.91
2023-01-29T12:19:16.423Z,68.85
2023-01-29T12:22:10.139Z,68.31
2023-01-29T12:24:51.580Z,66.47
2023-01-29T12:27:26.184Z,66.72
2023-01-29T12:29:58.208Z,66.14
2023-01-29T12:32:31.042Z,64.83
2023-01-29T12:35:11.797Z,64.00
2023-01-29T12:37:45.352Z,64.62
2023-01-29T12:40:16.532Z,63.60
2023-01-29T12:42:46.870Z,63.05
2023-01-29T12:45:18.026Z,62.78
2023-01-29T12:47:47.818Z,63.32
2023-01-29T12:50:21.412Z,62.88
2023-01-29T12:52:51.177Z,62.71
2023-01-29T12:55:24.147Z,62.46
2023-01-29T12:57:51.046Z,62.86
2023-01-29T13:00:23.019Z,63.33
2023-01-29T13:02:53.382Z,63.60
2023-01-29T13:05:26.310Z,63.27
2023-01-29T13:08:08.472Z,63.48
2023-01-29T13:10:38.319Z,63.46
2023-01-29T13:13:28.620Z,63.52
2023-01-29T13:15:56.783Z,64.00
2023-01-29T13:18:23.615Z,63.88
2023-01-29T13:20:51.659Z,63.10
2023-01-29T13:23:23.043Z,64.27
2023-01-29T13:25:51.203Z,64.38
2023-01-29T13:28:20.403Z,63.72
2023-01-29T13:30:47.779Z,64.03
2023-01-29T13:33:21.560Z,64.60
2023-01-29T13:35:49.336Z,64.59
2023-01-29T13:38:36.436Z,64.73
2023-01-29T13:41:05.309Z,65.62
2023-01-29T13:43:36.667Z,64.93
2023-01-29T13:46:22.199Z,65.41
2023-01-29T13:48:51.264Z,65.53
2023-01-29T13:51:21.500Z,64.79
2023-01-29T13:53:57.580Z,65.24
2023-01-29T13:56:33.269Z,65.12
2023-01-29T13:59:01.563Z,65.38
2023-01-29T14:01:47.161Z,66.23
2023-01-29T14:04:21.914Z,65.93
2023-01-29T14:06:50.367Z,65.32
2023-01-29T14:09:36.213Z,65.43
2023-01-29T14:12:04.620Z,65.97
2023-01-29T14:15:10.616Z,64.57
2023-01-29T14:17:38.539Z,65.48
2023-01-29T14:20:19.070Z,65.56
2023-01-29T14:22:54.141Z,65.25
2023-01-29T14:25:23.420Z,66.04
2023-01-29T14:27:50.452Z,66.25
2023-01-29T14:30:19.285Z,66.73
2023-01-29T14:32:50.220Z,66.33
2023-01-29T14:35:24.582Z,65.76
2023-01-29T14:37:53.805Z,66.08
2023-01-29T14:40:23.016Z,66.37
2023-01-29T14:42:53.256Z,65.54
2023-01-29T14:45:23.017Z,65.96
2023-01-29T14:47:49.849Z,66.12
2023-01-29T14:50:23.099Z,66.25
2023-01-29T14:52:52.388Z,66.21
2023-01-29T14:55:26.315Z,66.49
2023-01-29T14:57:56.772Z,66.66
2023-01-29T15:00:27.404Z,67.30
2023-01-29T15:03:01.993Z,67.19
2023-01-29T15:05:36.438Z,67.86
2023-01-29T15:08:16.593Z,68.06
2023-01-29T15:10:46.307Z,68.22
2023-01-29T15:13:25.118Z,68.46
2023-01-29T15:16:14.960Z,68.30
2023-01-29T15:18:43.424Z,68.30
2023-01-29T15:21:14.903Z,68.63
2023-01-29T15:23:42.539Z,69.15
2023-01-29T15:26:16.642Z,69.07
2023-01-29T15:28:47.236Z,68.98
2023-01-29T15:31:18.868Z,68.82
2023-01-29T15:33:47.112Z,68.35
2023-01-29T15:36:20.764Z,68.22
2023-01-29T15:38:47.604Z,68.71
2023-01-29T15:41:19.431Z,69.04
2023-01-29T15:43:50.636Z,69.12
2023-01-29T15:46:20.537Z,69.37
2023-01-29T15:48:49.349Z,69.82
2023-01-29T15:51:17.920Z,70.21
2023-01-29T15:53:48.667Z,70.35
2023-01-29T15:56:17.832Z,70.00
2023-01-29T15:58:47.266Z,70.05
2023-01-29T16:01:14.882Z,69.92
2023-01-29T16:03:42.546Z,69.68
2023-01-29T16:06:10.135Z,69.91
2023-01-29T16:08:39.093Z,70.19
2023-01-29T16:11:07.231Z,70.13
2023-01-29T16:13:36.427Z,70.09
2023-01-29T16:16:08.779Z,70.09
2023-01-29T16:18:39.496Z,70.26
2023-01-29T16:21:28.282Z,70.43
2023-01-29T16:24:23.341Z,70.16
2023-01-29T16:26:52.218Z,69.90
2023-01-29T16:29:21.767Z,70.11
2023-01-29T16:31:50.721Z,70.18
2023-01-29T16:34:29.344Z,69.85
2023-01-29T16:36:56.736Z,70.06
2023-01-29T16:39:24.905Z,69.81
2023-01-29T16:42:22.180Z,70.17
2023-01-29T16:45:07.765Z,70.56
2023-01-29T16:47:39.092Z,70.52
2023-01-29T16:50:09.361Z,70.71
2023-01-29T16:52:38.762Z,70.82
2023-01-29T16:55:16.302Z,71.08
2023-01-29T16:57:49.316Z,71.00
2023-01-29T17:00:44.109Z,71.21
2023-01-29T17:03:13.991Z,71.34
2023-01-29T17:05:42.512Z,71.35
2023-01-29T17:08:40.436Z,71.61
2023-01-29T17:11:14.060Z,71.98
2023-01-29T17:13:45.742Z,71.95
2023-01-29T17:16:21.594Z,72.06
2023-01-29T17:18:48.858Z,72.40
2023-01-29T17:21:15.852Z,72.47
2023-01-29T17:23:42.675Z,72.42
2023-01-29T17:26:12.255Z,72.69
2023-01-29T17:28:39.523Z,72.73
2023-01-29T17:31:08.112Z,72.92
2023-01-29T17:33:36.148Z,72.84
2023-01-29T17:36:03.171Z,72.90
2023-01-29T17:38:30.171Z,73.28
2023-01-29T17:40:59.156Z,73.41
2023-01-29T17:43:26.466Z,73.47
2023-01-29T17:45:53.605Z,73.33
2023-01-29T17:48:25.059Z,73.28
2023-01-29T17:50:54.147Z,73.27
2023-01-29T17:53:21.985Z,72.95
2023-01-29T17:55:49.346Z,72.89
2023-01-29T17:58:20.570Z,72.74
2023-01-29T18:00:48.289Z,72.79
2023-01-29T18:03:15.702Z,72.86
2023-01-29T18:05:44.251Z,72.82
2023-01-29T18:08:17.133Z,72.76
2023-01-29T18:10:44.386Z,72.85
2023-01-29T18:13:11.637Z,72.99
2023-01-29T18:15:38.691Z,73.05
2023-01-29T18:18:06.032Z,73.08
2023-01-29T18:20:37.009Z,73.07
2023-01-29T18:23:04.617Z,73.16
2023-01-29T18:25:31.777Z,73.32
2023-01-29T18:27:58.822Z,73.38
2023-01-29T18:30:25.873Z,73.35
2023-01-29T18:32:53.841Z,73.38
2023-01-29T18:35:21.411Z,73.61
2023-01-29T18:37:48.551Z,73.80
2023-01-29T18:40:17.630Z,73.59
2023-01-29T18:42:47.753Z,73.80
2023-01-29T18:45:15.971Z,73.73
2023-01-29T18:47:43.250Z,73.84
2023-01-29T18:50:11.176Z,73.83
2023-01-29T18:52:38.537Z,73.64
2023-01-29T18:55:05.821Z,73.60
2023-01-29T18:58:26.248Z,73.63
2023-01-29T19:00:21.844Z,73.47
2023-01-29T19:02:48.684Z,73.58
2023-01-29T19:05:17.463Z,73.63
2023-01-29T19:07:44.530Z,73.51
2023-01-29T19:10:13.092Z,73.67
2023-01-29T19:12:43.179Z,73.68
2023-01-29T19:15:10.266Z,73.76
2023-01-29T19:17:37.329Z,74.01
2023-01-29T19:20:05.296Z,74.13
2023-01-29T19:22:32.729Z,74.20
2023-01-29T19:24:59.781Z,74.47
2023-01-29T19:27:30.853Z,74.37
2023-01-29T19:29:58.702Z,74.32
2023-01-29T19:32:29.411Z,74.13
2023-01-29T19:34:58.052Z,74.33
2023-01-29T19:37:25.849Z,74.16
2023-01-29T19:39:54.220Z,74.17
2023-01-29T19:42:21.479Z,74.01
2023-01-29T19:44:48.732Z,74.18
2023-01-29T19:47:15.796Z,73.79
2023-01-29T19:49:42.933Z,74.17
2023-01-29T19:52:15.333Z,73.94
2023-01-29T19:54:49.300Z,74.03
2023-01-29T19:57:16.347Z,73.90
2023-01-29T19:59:45.665Z,73.84
2023-01-29T20:02:12.961Z,74.07
2023-01-29T20:04:40.038Z,74.23
2023-01-29T20:07:07.089Z,74.27
2023-01-29T20:09:34.371Z,74.70
2023-01-29T20:12:01.684Z,74.30
2023-01-29T20:14:28.735Z,74.43
2023-01-29T20:16:55.469Z,74.49
2023-01-29T20:19:22.783Z,74.77
2023-01-29T20:21:50.213Z,74.88
2023-01-29T20:24:17.594Z,74.96
2023-01-29T20:26:44.756Z,74.74
2023-01-29T20:29:12.345Z,74.89
2023-01-29T20:31:39.187Z,74.83
2023-01-29T20:34:06.020Z,74.88
2023-01-29T20:36:32.955Z,74.88
2023-01-29T20:39:00.014Z,74.74
2023-01-29T20:41:27.053Z,74.90
2023-01-29T20:43:53.969Z,75.12
2023-01-29T20:46:21.252Z,74.76
2023-01-29T20:48:49.675Z,74.75
2023-01-29T20:51:18.156Z,74.42
2023-01-29T20:53:46.346Z,74.31
2023-01-29T20:56:14.705Z,74.22
2023-01-29T20:58:41.720Z,74.44
2023-01-29T21:01:09.839Z,74.63
2023-01-29T21:03:37.176Z,74.65
2023-01-29T21:06:04.264Z,74.41
2023-01-29T21:08:31.569Z,74.85
2023-01-29T21:10:58.690Z,74.86
2023-01-29T21:13:25.799Z,74.75
2023-01-29T21:15:52.953Z,74.50
2023-01-29T21:18:19.800Z,74.57
2023-01-29T21:20:47.043Z,74.26
2023-01-29T21:23:13.892Z,74.48
2023-01-29T21:25:41.677Z,74.12
2023-01-29T21:28:08.591Z,73.95
2023-01-29T21:30:35.790Z,74.02
2023-01-29T21:33:03.057Z,73.97
2023-01-29T21:35:30.030Z,73.94
2023-01-29T21:37:57.074Z,74.14
2023-01-29T21:40:27.336Z,74.33
2023-01-29T21:43:12.674Z,74.18
2023-01-29T21:45:40.283Z,74.06
2023-01-29T21:48:07.477Z,74.01
2023-01-29T21:50:34.731Z,74.34
2023-01-29T21:53:01.791Z,74.09
2023-01-29T21:55:28.707Z,73.96
2023-01-29T21:57:55.761Z,74.03
2023-01-29T22:00:22.925Z,74.31
2023-01-29T22:02:51.432Z,73.91
2023-01-29T22:05:20.175Z,74.11
2023-01-29T22:07:48.253Z,73.89
2023-01-29T22:10:16.536Z,73.87
2023-01-29T22:12:44.833Z,74.16
2023-01-29T22:15:12.148Z,74.13
2023-01-29T22:17:41.457Z,74.06
2023-01-29T22:20:12.488Z,74.59
2023-01-29T22:22:39.320Z,74.13
2023-01-29T22:25:06.258Z,73.75
2023-01-29T22:27:33.910Z,73.96
2023-01-29T22:30:00.659Z,74.25
2023-01-29T22:32:27.557Z,74.08
2023-01-29T22:34:54.506Z,74.31
2023-01-29T22:37:21.284Z,74.16
2023-01-29T22:39:48.020Z,74.12
2023-01-29T22:42:14.768Z,74.34
2023-01-29T22:44:41.699Z,74.18
2023-01-29T22:47:08.446Z,74.11
2023-01-29T22:49:35.277Z,74.01
2023-01-29T22:52:10.865Z,74.09
2023-01-29T22:54:38.587Z,74.64
2023-01-29T22:57:05.941Z,74.34
2023-01-29T22:59:33.192Z,74.12
2023-01-29T23:02:00.210Z,74.26
2023-01-29T23:04:27.153Z,74.64
2023-01-29T23:06:54.119Z,74.75
2023-01-29T23:09:21.107Z,74.83
2023-01-29T23:11:47.999Z,74.96
2023-01-29T23:14:14.854Z,74.96
2023-01-29T23:16:42.128Z,74.91
2023-01-29T23:19:10.310Z,74.88
2023-01-29T23:21:37.648Z,75.01
2023-01-29T23:24:06.220Z,75.23
2023-01-29T23:26:52.496Z,75.22
2023-01-29T23:29:19.418Z,75.58
2023-01-29T23:31:46.319Z,75.39
2023-01-29T23:34:14.362Z,75.42
2023-01-29T23:36:41.414Z,76.17
2023-01-29T23:39:08.643Z,76.03
2023-01-29T23:41:35.795Z,76.07
2023-01-29T23:44:02.830Z,76.09
2023-01-29T23:46:29.833Z,76.30
2023-01-29T23:48:57.168Z,76.35
2023-01-29T23:51:24.583Z,76.63
2023-01-29T23:53:51.578Z,76.88
2023-01-29T23:56:18.612Z,76.76
2023-01-29T23:58:46.075Z,77.13
